Time;durP1;ratioP1;P1;durP2;ratioP2;P2;SDS_P1;SDS_P2;PMS_P1;PMS_P2;Temp;Humidity;BMP_temperature;BMP_pressure;BME280_temperature;BME280_humidity;BME280_pressure;Samples;Min_cycle;Max_cycle;Signal;HPM_P1;HPM_P2
2022/02/16 00:00:17;;;;;;;63.80;37.90;;;;;;;5.01;77.68;95222.19;5053734;28;20457;-84
2022/02/16 00:02:44;;;;;;;61.07;35.63;;;;;;;5.02;77.47;95231.66;5053648;28;20506;-84
2022/02/16 00:05:12;;;;;;;60.40;34.47;;;;;;;5.01;77.30;95229.16;5053638;28;20437;-85
2022/02/16 00:07:40;;;;;;;51.50;29.47;;;;;;;5.02;77.49;95223.88;5053691;28;20429;-85
2022/02/16 00:10:08;;;;;;;36.70;24.93;;;;;;;4.91;77.83;95218.44;5053776;28;20457;-85
2022/02/16 00:12:35;;;;;;;30.83;22.80;;;;;;;4.83;77.95;95199.84;5053633;28;20820;-85
2022/02/16 00:15:02;;;;;;;34.60;24.73;;;;;;;4.81;77.88;95205.13;5053604;28;20947;-86
2022/02/16 00:17:31;;;;;;;37.63;24.53;;;;;;;4.80;77.58;95210.41;5053514;28;20536;-85
2022/02/16 00:19:58;;;;;;;34.33;22.73;;;;;;;4.78;78.11;95209.66;5053408;28;20472;-84
2022/02/16 00:22:25;;;;;;;46.63;25.80;;;;;;;4.63;78.84;95211.38;5053181;28;20524;-85
2022/02/16 00:24:52;;;;;;;48.17;25.53;;;;;;;4.63;78.11;95214.81;5053459;28;20485;-85
2022/02/16 00:27:19;;;;;;;35.93;19.83;;;;;;;4.65;78.73;95219.94;5053314;28;20804;-86
2022/02/16 00:29:46;;;;;;;28.60;19.20;;;;;;;4.65;78.80;95220.78;5053213;28;20480;-85
2022/02/16 00:32:14;;;;;;;37.80;22.10;;;;;;;4.69;78.49;95210.19;5053549;28;21242;-85
2022/02/16 00:34:42;;;;;;;33.53;21.30;;;;;;;4.67;79.46;95202.50;5053361;28;20488;-85
2022/02/16 00:37:09;;;;;;;30.60;18.80;;;;;;;4.71;81.77;95200.56;5053201;28;20452;-85
2022/02/16 00:39:36;;;;;;;33.87;19.43;;;;;;;4.68;79.74;95200.72;5052757;28;20520;-85
2022/02/16 00:42:04;;;;;;;30.80;20.57;;;;;;;4.63;79.17;95195.78;5053101;28;20461;-86
2022/02/16 00:44:31;;;;;;;29.33;18.90;;;;;;;4.72;79.64;95205.66;5052938;28;20544;-85
2022/02/16 00:46:58;;;;;;;33.07;18.43;;;;;;;4.72;79.03;95195.25;5052809;28;20550;-85
2022/02/16 00:49:25;;;;;;;27.60;18.53;;;;;;;4.76;78.53;95203.72;5052945;28;20484;-85
2022/02/16 00:51:53;;;;;;;24.67;17.60;;;;;;;4.73;79.50;95199.53;5052810;28;20445;-85
2022/02/16 00:54:20;;;;;;;32.30;17.43;;;;;;;4.76;79.94;95193.31;5052647;28;20951;-86
2022/02/16 00:56:47;;;;;;;27.60;18.50;;;;;;;4.79;79.65;95188.78;5052737;28;20463;-86
2022/02/16 00:59:14;;;;;;;30.73;19.27;;;;;;;4.80;79.65;95202.63;5052926;28;20456;-85
2022/02/16 01:01:41;;;;;;;32.90;18.97;;;;;;;4.80;78.88;95197.41;5052529;28;20559;-84
2022/02/16 01:04:08;;;;;;;30.87;18.87;;;;;;;4.78;79.43;95194.91;5052557;28;20467;-84
2022/02/16 01:06:35;;;;;;;25.90;18.23;;;;;;;4.74;78.60;95195.19;5052436;28;20432;-86
2022/02/16 01:09:04;;;;;;;28.20;18.90;;;;;;;4.73;79.25;95189.13;5052549;28;20491;-84
2022/02/16 01:11:31;;;;;;;29.50;16.97;;;;;;;4.69;79.53;95182.44;5053212;28;20460;-85
2022/02/16 01:13:57;;;;;;;25.10;17.43;;;;;;;4.79;80.14;95186.19;5052901;28;20455;-84
2022/02/16 01:16:24;;;;;;;31.10;17.07;;;;;;;4.82;79.30;95180.81;5052389;28;20463;-85
2022/02/16 01:18:51;;;;;;;21.47;16.40;;;;;;;4.89;79.39;95176.06;5052506;28;20539;-85
2022/02/16 01:21:18;;;;;;;26.10;16.40;;;;;;;4.95;78.62;95181.78;5052791;28;20439;-84
2022/02/16 01:23:45;;;;;;;24.37;16.63;;;;;;;4.89;79.18;95187.31;5052348;28;20448;-84
2022/02/16 01:26:17;;;;;;;22.17;16.70;;;;;;;4.85;79.39;95185.81;5052749;28;20445;-83
2022/02/16 01:28:44;;;;;;;20.57;15.67;;;;;;;4.80;79.23;95180.06;5052628;28;20488;-84
2022/02/16 01:31:11;;;;;;;20.73;15.33;;;;;;;4.81;79.79;95189.53;5052423;28;20440;-84
2022/02/16 01:33:38;;;;;;;22.60;15.90;;;;;;;4.78;79.72;95176.72;5052499;28;20445;-85
2022/02/16 01:36:06;;;;;;;25.80;17.50;;;;;;;4.79;79.69;95160.19;5052314;28;20457;-84
2022/02/16 01:38:33;;;;;;;28.63;17.10;;;;;;;4.85;80.21;95165.03;5052133;28;20445;-84
2022/02/16 01:41:00;;;;;;;24.90;14.90;;;;;;;4.89;79.86;95163.06;5052646;28;20492;-84
2022/02/16 01:43:31;;;;;;;21.03;16.20;;;;;;;4.93;78.67;95157.63;5052276;28;20457;-85
2022/02/16 01:45:58;;;;;;;27.27;16.50;;;;;;;4.95;78.37;95149.75;5033200;28;20441;-85
2022/02/16 01:48:26;;;;;;;25.57;16.70;;;;;;;4.94;78.60;95143.72;5051735;28;20445;-84
2022/02/16 01:50:53;;;;;;;25.80;16.07;;;;;;;5.00;78.54;95137.31;5017906;28;20452;-85
2022/02/16 01:53:20;;;;;;;30.70;15.33;;;;;;;4.95;78.96;95124.56;5033370;28;20445;-84
2022/02/16 01:55:48;;;;;;;22.10;14.57;;;;;;;4.92;79.09;95129.97;5051883;28;20453;-84
2022/02/16 01:58:16;;;;;;;25.73;15.40;;;;;;;4.92;79.18;95122.16;5052176;28;20859;-86
2022/02/16 02:00:45;;;;;;;25.80;15.50;;;;;;;4.89;78.73;95114.50;5051850;28;20448;-84
2022/02/16 02:03:12;;;;;;;23.77;16.30;;;;;;;4.87;79.54;95121.56;5052040;28;20458;-85
2022/02/16 02:05:40;;;;;;;21.00;13.80;;;;;;;4.91;78.60;95117.84;5052193;28;20448;-87
2022/02/16 02:08:07;;;;;;;29.20;15.90;;;;;;;4.82;79.39;95102.81;5052067;28;20464;-84
2022/02/16 02:10:35;;;;;;;17.67;13.73;;;;;;;4.83;79.62;95109.69;5054709;28;20496;-84
2022/02/16 02:13:02;;;;;;;23.77;14.87;;;;;;;4.89;79.59;95108.47;5056027;28;20494;-85
2022/02/16 02:15:29;;;;;;;24.03;13.63;;;;;;;4.93;79.28;95107.41;5020001;28;20455;-85
2022/02/16 02:17:59;;;;;;;21.97;14.63;;;;;;;4.96;79.72;95113.25;5020472;28;20457;-85
2022/02/16 02:20:29;;;;;;;26.53;16.43;;;;;;;4.81;79.93;95116.75;5055731;28;20496;-87
2022/02/16 02:22:57;;;;;;;31.27;20.83;;;;;;;4.73;79.75;95118.13;5055577;28;20453;-84
2022/02/16 02:25:24;;;;;;;31.07;19.40;;;;;;;4.45;79.17;95111.91;5020350;28;20477;-85
2022/02/16 02:27:52;;;;;;;34.40;22.40;;;;;;;4.19;81.07;95108.19;5055696;28;20440;-85
2022/02/16 02:30:19;;;;;;;36.70;22.30;;;;;;;4.33;80.72;95121.22;5055199;28;20485;-85
2022/02/16 02:32:48;;;;;;;33.30;21.43;;;;;;;4.40;80.44;95126.94;5055742;28;20441;-84
2022/02/16 02:35:15;;;;;;;35.10;22.13;;;;;;;4.43;80.04;95133.72;5055311;28;20449;-84
2022/02/16 02:37:44;;;;;;;37.20;21.97;;;;;;;4.53;80.74;95121.88;5055384;28;20449;-84
2022/02/16 02:40:11;;;;;;;37.93;26.90;;;;;;;4.30;81.46;95129.19;5055068;28;21059;-84
2022/02/16 02:42:39;;;;;;;38.00;25.77;;;;;;;4.36;81.88;95130.63;5054815;28;20448;-85
2022/02/16 02:45:09;;;;;;;36.20;21.90;;;;;;;4.46;81.63;95138.72;5055492;28;20855;-85
2022/02/16 02:47:36;;;;;;;35.80;23.93;;;;;;;4.53;81.48;95142.66;5055209;28;20966;-85
2022/02/16 02:50:03;;;;;;;47.70;25.07;;;;;;;4.29;82.57;95143.09;5055710;28;20480;-84
2022/02/16 02:52:32;;;;;;;40.13;24.20;;;;;;;4.32;82.20;95136.91;5055342;28;20444;-84
2022/02/16 02:55:00;;;;;;;40.83;24.53;;;;;;;4.21;83.07;95137.53;5020492;28;20819;-84
2022/02/16 02:57:27;;;;;;;36.90;23.47;;;;;;;4.25;81.86;95139.00;5054850;28;20434;-83
2022/02/16 02:59:54;;;;;;;37.13;24.47;;;;;;;4.22;82.07;95144.38;5054861;28;20450;-84
2022/02/16 03:02:23;;;;;;;41.60;26.80;;;;;;;4.00;82.85;95142.13;5054658;28;20463;-84
2022/02/16 03:04:50;;;;;;;42.87;26.00;;;;;;;4.16;82.46;95149.09;5054787;28;20444;-83
2022/02/16 03:07:17;;;;;;;35.33;22.40;;;;;;;4.14;81.99;95137.94;5054700;28;20460;-83
2022/02/16 03:09:44;;;;;;;46.50;26.63;;;;;;;4.20;82.12;95133.25;5054183;28;20496;-84
2022/02/16 03:12:12;;;;;;;43.07;24.73;;;;;;;4.22;81.18;95131.41;5054688;28;20451;-84
2022/02/16 03:14:39;;;;;;;41.30;24.10;;;;;;;4.37;81.98;95127.13;5054813;28;20443;-84
2022/02/16 03:17:06;;;;;;;39.00;22.70;;;;;;;4.46;81.25;95130.94;5054711;28;20437;-84
2022/02/16 03:19:33;;;;;;;40.70;25.43;;;;;;;4.48;81.33;95109.13;5054357;28;20869;-84
2022/02/16 03:22:00;;;;;;;38.53;24.70;;;;;;;4.55;80.27;95118.25;5054463;28;20442;-85
2022/02/16 03:24:27;;;;;;;46.07;29.17;;;;;;;4.42;81.10;95130.28;5054388;28;20461;-84
2022/02/16 03:26:54;;;;;;;42.40;26.90;;;;;;;4.50;81.03;95120.28;5054550;28;20460;-85
2022/02/16 03:29:22;;;;;;;42.93;28.10;;;;;;;4.43;80.88;95112.94;5054475;28;20484;-84
2022/02/16 03:31:49;;;;;;;44.13;26.73;;;;;;;4.39;81.37;95125.25;5054297;28;20467;-84
2022/02/16 03:34:17;;;;;;;45.47;26.07;;;;;;;4.34;82.78;95128.13;5054287;28;20462;-84
2022/02/16 03:36:44;;;;;;;31.13;21.33;;;;;;;4.38;83.11;95138.34;5054080;28;20464;-84
2022/02/16 03:39:11;;;;;;;32.57;19.37;;;;;;;4.41;83.36;95144.19;5054081;28;20958;-85
2022/02/16 03:41:38;;;;;;;21.23;14.63;;;;;;;4.45;82.44;95139.66;5053987;28;20450;-85
2022/02/16 03:44:06;;;;;;;18.90;12.57;;;;;;;4.51;82.75;95134.09;5054049;28;20445;-84
2022/02/16 03:46:35;;;;;;;17.63;12.70;;;;;;;4.62;82.05;95142.13;5053613;28;20444;-84
2022/02/16 03:49:01;;;;;;;18.70;13.20;;;;;;;4.68;81.63;95139.19;5053992;28;20440;-84
2022/02/16 03:51:28;;;;;;;15.37;12.07;;;;;;;4.72;81.38;95134.66;5053683;28;20452;-84
2022/02/16 03:53:56;;;;;;;17.83;12.20;;;;;;;4.71;80.66;95136.41;5053662;28;20528;-85
2022/02/16 03:56:23;;;;;;;15.17;11.93;;;;;;;4.78;81.00;95127.31;5053644;28;20451;-84
2022/02/16 03:58:50;;;;;;;15.97;12.07;;;;;;;4.83;81.10;95127.03;5053606;28;20455;-84
2022/02/16 04:01:17;;;;;;;22.77;12.00;;;;;;;4.81;80.19;95126.31;5053418;28;20450;-84
2022/02/16 04:03:45;;;;;;;15.07;12.23;;;;;;;4.88;80.38;95130.19;5053570;28;20460;-87
2022/02/16 04:06:12;;;;;;;21.10;10.97;;;;;;;4.94;82.05;95115.09;5054494;28;20436;-82
2022/02/16 04:08:39;;;;;;;20.63;13.37;;;;;;;5.01;80.86;95123.38;5054063;28;20869;-86
2022/02/16 04:11:06;;;;;;;16.73;11.87;;;;;;;5.03;80.39;95125.88;5052155;28;20567;-85
2022/02/16 04:13:33;;;;;;;20.53;11.97;;;;;;;5.01;80.07;95119.94;5054409;28;20449;-85
2022/02/16 04:16:00;;;;;;;21.63;12.67;;;;;;;5.04;80.24;95117.16;5054291;28;20432;-85
2022/02/16 04:18:28;;;;;;;16.37;11.87;;;;;;;5.06;80.25;95117.91;5054570;28;20427;-84
2022/02/16 04:20:57;;;;;;;21.20;11.93;;;;;;;5.04;79.57;95111.94;5055132;28;20437;-84
2022/02/16 04:23:24;;;;;;;14.83;11.20;;;;;;;5.00;79.81;95102.66;5054783;28;20795;-85
2022/02/16 04:25:52;;;;;;;15.57;12.10;;;;;;;4.98;79.75;95102.75;5054648;28;20930;-85
2022/02/16 04:28:21;;;;;;;18.00;12.80;;;;;;;4.99;79.05;95094.03;5054712;28;20469;-85
2022/02/16 04:30:48;;;;;;;19.20;11.40;;;;;;;5.01;79.85;95093.94;5020156;28;20995;-84
2022/02/16 04:36:39;;;;;;;17.90;12.97;;;;;;;5.08;79.73;95084.81;5054068;28;20400;-84
2022/02/16 04:39:06;;;;;;;19.80;12.23;;;;;;;5.09;80.23;95094.31;5053613;28;20432;-84
2022/02/16 04:41:33;;;;;;;23.20;13.47;;;;;;;5.06;80.02;95084.09;5053970;28;20537;-83
2022/02/16 04:44:00;;;;;;;23.08;15.65;;;;;;;5.14;79.56;95095.69;5053890;28;20451;-84
2022/02/16 04:46:27;;;;;;;26.90;17.10;;;;;;;5.17;79.97;95098.09;5054095;28;20195;-84
2022/02/16 04:48:54;;;;;;;25.63;18.47;;;;;;;5.21;79.72;95104.81;5019112;28;20440;-84
2022/02/16 04:51:21;;;;;;;29.80;19.10;;;;;;;5.23;80.19;95097.75;5053873;28;21025;-84
2022/02/16 04:53:50;;;;;;;31.60;18.30;;;;;;;5.10;80.06;95093.38;5054061;28;20433;-85
2022/02/16 04:56:18;;;;;;;27.73;19.57;;;;;;;5.12;80.10;95097.53;5054191;28;20459;-85
2022/02/16 04:58:45;;;;;;;28.47;20.10;;;;;;;5.16;79.66;95100.78;5054513;28;20453;-85
2022/02/16 05:01:13;;;;;;;27.30;18.23;;;;;;;5.22;79.70;95098.69;5053702;28;20952;-85
2022/02/16 05:03:43;;;;;;;31.60;22.07;;;;;;;5.23;80.16;95096.91;5054406;28;20511;-85
2022/02/16 05:06:10;;;;;;;34.10;21.63;;;;;;;5.23;79.60;95086.50;5053553;28;20532;-85
2022/02/16 05:08:37;;;;;;;38.67;21.87;;;;;;;5.17;79.20;95097.25;5053966;28;20459;-85
2022/02/16 05:11:05;;;;;;;35.60;23.70;;;;;;;5.22;79.27;95103.06;5053685;28;21006;-85
2022/02/16 05:13:32;;;;;;;38.97;24.10;;;;;;;5.16;79.56;95101.63;5053728;28;20430;-85
2022/02/16 05:15:59;;;;;;;43.40;26.70;;;;;;;4.98;79.76;95102.75;5053313;28;20471;-85
2022/02/16 05:18:26;;;;;;;40.00;22.57;;;;;;;4.84;80.91;95098.34;5053643;28;20498;-83
2022/02/16 05:20:53;;;;;;;38.10;21.40;;;;;;;4.64;81.67;95089.16;5053533;28;20452;-83
2022/02/16 05:23:20;;;;;;;31.20;20.17;;;;;;;4.69;82.07;95101.03;5053789;28;20625;-83
2022/02/16 05:25:47;;;;;;;32.40;19.70;;;;;;;4.73;82.00;95092.97;5053760;28;20481;-84
2022/02/16 05:28:15;;;;;;;33.00;21.20;;;;;;;4.82;81.97;95088.97;5053186;28;20951;-83
2022/02/16 05:30:42;;;;;;;33.60;19.77;;;;;;;4.84;81.39;95089.72;5053040;28;20477;-84
2022/02/16 05:33:10;;;;;;;33.20;21.27;;;;;;;4.82;81.94;95089.81;5053649;28;20954;-85
2022/02/16 05:35:37;;;;;;;28.87;19.63;;;;;;;4.80;81.02;95085.63;5054095;28;20456;-84
2022/02/16 05:38:04;;;;;;;31.13;20.43;;;;;;;4.78;81.80;95093.53;5053966;28;20806;-84
2022/02/16 05:40:31;;;;;;;31.83;19.70;;;;;;;4.92;81.71;95103.13;5053077;28;20522;-84
2022/02/16 05:42:58;;;;;;;30.57;20.33;;;;;;;5.00;81.13;95100.06;5053416;28;20430;-84
2022/02/16 05:45:28;;;;;;;28.90;20.23;;;;;;;5.02;81.18;95119.00;5056295;28;20459;-84
2022/02/16 05:47:55;;;;;;;38.90;23.60;;;;;;;4.92;80.84;95106.56;5058343;28;20494;-85
2022/02/16 05:50:22;;;;;;;27.23;21.03;;;;;;;4.97;81.71;95109.72;5057040;28;20593;-85
2022/02/16 05:52:49;;;;;;;35.80;23.10;;;;;;;5.03;81.46;95116.31;5057620;28;20433;-85
2022/02/16 05:55:16;;;;;;;32.97;23.40;;;;;;;5.09;80.70;95110.75;5057024;28;20433;-85
2022/02/16 05:57:43;;;;;;;41.10;25.17;;;;;;;5.13;80.58;95103.59;5057466;28;20463;-85
2022/02/16 06:00:19;;;;;;;37.67;24.20;;;;;;;5.24;80.54;95101.19;5056913;28;20543;-83
2022/02/16 06:02:48;;;;;;;38.73;25.17;;;;;;;5.33;81.15;95097.19;5058396;28;20467;-85
2022/02/16 06:05:14;;;;;;;34.87;24.77;;;;;;;5.21;80.77;95090.97;5057190;28;20439;-83
2022/02/16 06:07:41;;;;;;;31.90;23.30;;;;;;;5.22;81.45;95090.06;5056618;28;20433;-83
2022/02/16 06:10:09;;;;;;;36.37;24.40;;;;;;;5.18;81.91;95089.38;5057350;28;20500;-82
2022/02/16 06:12:39;;;;;;;37.60;24.53;;;;;;;5.19;83.21;95083.22;5022446;28;20449;-87
2022/02/16 06:15:07;;;;;;;37.50;20.93;;;;;;;5.38;82.57;95092.53;5057244;28;20497;-85
2022/02/16 06:17:34;;;;;;;35.17;23.60;;;;;;;5.54;83.05;95099.31;5057285;28;20541;-86
2022/02/16 06:20:03;;;;;;;34.33;22.23;;;;;;;5.53;81.32;95099.41;5057717;28;20531;-88
2022/02/16 06:22:30;;;;;;;39.57;23.40;;;;;;;5.52;80.62;95109.00;5057033;28;20815;-87
2022/02/16 06:24:58;;;;;;;49.53;24.93;;;;;;;5.56;80.79;95101.81;5056816;28;20451;-84
2022/02/16 06:30:48;;;;;;;44.03;32.10;;;;;;;5.53;79.15;95115.03;5055498;28;21047;-82
2022/02/16 06:33:15;;;;;;;70.77;41.23;;;;;;;5.44;79.74;95112.97;5056764;28;20491;-81
2022/02/16 06:35:43;;;;;;;67.67;41.20;;;;;;;5.48;80.43;95117.06;5057393;28;20443;-81
2022/02/16 06:38:11;;;;;;;91.57;49.40;;;;;;;5.28;81.37;95108.72;5056182;28;20440;-81
2022/02/16 06:44:06;;;;;;;61.23;38.03;;;;;;;5.27;81.24;95103.59;5056141;28;20397;-83
2022/02/16 06:46:33;;;;;;;58.00;36.40;;;;;;;5.37;82.12;95111.69;5008962;28;20456;-81
2022/02/16 06:49:00;;;;;;;87.47;48.70;;;;;;;5.48;80.89;95130.06;5037770;28;20467;-83
2022/02/16 06:51:30;;;;;;;56.33;35.27;;;;;;;5.37;81.59;95117.72;5055761;28;20472;-84
2022/02/16 06:53:57;;;;;;;69.43;39.17;;;;;;;5.44;82.18;95134.63;5037959;28;20444;-84
2022/02/16 06:56:24;;;;;;;64.07;40.07;;;;;;;5.48;81.54;95125.69;5055164;28;20447;-84
2022/02/16 06:58:52;;;;;;;55.70;36.10;;;;;;;5.25;82.49;95123.69;5055460;28;20531;-84
2022/02/16 07:01:18;;;;;;;59.13;35.97;;;;;;;5.34;83.34;95119.69;5055486;28;20441;-82
2022/02/16 07:03:45;;;;;;;53.30;34.50;;;;;;;5.32;83.24;95118.94;5021420;28;20453;-83
2022/02/16 07:06:12;;;;;;;56.20;37.20;;;;;;;5.28;83.05;95102.69;5055474;28;20532;-82
2022/02/16 07:08:41;;;;;;;59.20;36.30;;;;;;;5.09;83.99;95113.34;5056162;28;20442;-83
2022/02/16 07:11:08;;;;;;;52.87;35.33;;;;;;;5.23;84.12;95107.31;5055671;28;20501;-82
2022/02/16 07:13:34;;;;;;;47.50;32.10;;;;;;;5.29;83.82;95128.59;5055534;28;20430;-82
2022/02/16 07:16:01;;;;;;;55.00;33.20;;;;;;;5.35;84.06;95113.53;5055534;28;20444;-83
2022/02/16 07:18:56;;;;;;;54.33;31.43;;;;;;;5.48;82.85;95115.28;5055206;28;20437;-83
2022/02/16 07:21:24;;;;;;;45.33;32.07;;;;;;;5.51;82.31;95109.09;5055210;28;20457;-83
2022/02/16 07:23:52;;;;;;;55.60;32.30;;;;;;;5.59;82.22;95112.88;5055422;28;20434;-84
2022/02/16 07:26:19;;;;;;;61.03;34.43;;;;;;;5.69;81.88;95107.09;5055460;28;20430;-83
2022/02/16 07:28:46;;;;;;;53.63;30.30;;;;;;;5.80;80.97;95094.25;5055203;28;20461;-85
2022/02/16 07:31:13;;;;;;;68.73;31.93;;;;;;;6.00;81.78;95106.88;5055515;28;20560;-84
2022/02/16 07:33:40;;;;;;;43.93;29.13;;;;;;;6.27;80.27;95101.66;5051082;28;20454;-84
2022/02/16 07:36:07;;;;;;;69.67;34.13;;;;;;;6.22;78.85;95101.13;5055178;28;20480;-85
2022/02/16 07:38:34;;;;;;;53.77;31.70;;;;;;;6.32;79.00;95094.38;5055436;28;20453;-85
2022/02/16 07:41:02;;;;;;;45.67;30.10;;;;;;;6.50;78.58;95095.81;5055315;28;20465;-86
2022/02/16 07:43:29;;;;;;;53.57;32.00;;;;;;;6.58;78.33;95090.06;5035499;28;20466;-85
2022/02/16 07:45:57;;;;;;;45.47;30.50;;;;;;;6.71;77.59;95095.34;5034962;28;20446;-85
2022/02/16 07:48:24;;;;;;;51.03;32.17;;;;;;;6.67;78.14;95097.31;5034878;28;20455;-85
2022/02/16 07:51:12;;;;;;;51.87;32.70;;;;;;;6.66;77.68;95097.41;5034946;28;20481;-85
2022/02/16 07:53:39;;;;;;;56.17;33.13;;;;;;;6.68;78.31;95096.38;5035104;28;20440;-84
2022/02/16 07:56:08;;;;;;;63.23;36.23;;;;;;;6.76;77.07;95098.47;5034672;28;20443;-84
2022/02/16 07:58:35;;;;;;;51.60;31.83;;;;;;;6.70;77.16;95089.28;5034890;28;20454;-85
2022/02/16 08:01:02;;;;;;;41.37;28.87;;;;;;;6.51;77.49;95094.03;5034879;28;20937;-85
2022/02/16 08:03:29;;;;;;;42.63;28.43;;;;;;;6.51;77.75;95091.41;5034457;28;20427;-85
2022/02/16 08:05:56;;;;;;;42.23;27.43;;;;;;;6.66;78.31;95087.81;5034277;28;20447;-84
2022/02/16 08:08:23;;;;;;;61.30;32.80;;;;;;;6.67;77.75;95088.66;5033572;28;20963;-85
2022/02/16 08:10:51;;;;;;;63.27;34.87;;;;;;;6.85;77.49;95087.41;5034793;28;20474;-85
2022/02/16 08:13:20;;;;;;;57.20;31.93;;;;;;;7.06;77.39;95087.75;5034748;28;20479;-84
2022/02/16 08:15:47;;;;;;;55.30;34.47;;;;;;;7.11;76.02;95077.81;5043724;28;20451;-84
2022/02/16 08:18:14;;;;;;;55.20;34.77;;;;;;;7.39;76.89;95077.59;5034483;28;20451;-85
2022/02/16 08:20:43;;;;;;;48.90;31.00;;;;;;;7.57;75.25;95057.22;5033035;28;20484;-85
2022/02/16 08:23:11;;;;;;;60.53;34.27;;;;;;;7.70;74.49;95067.63;5054346;28;20422;-83
2022/02/16 08:25:38;;;;;;;49.17;31.27;;;;;;;7.94;74.54;95067.66;5053943;28;20503;-83
2022/02/16 08:28:06;;;;;;;37.50;28.17;;;;;;;8.17;72.81;95074.69;5054442;28;20446;-84
2022/02/16 08:30:34;;;;;;;44.17;29.70;;;;;;;8.30;71.38;95075.44;5054088;28;20425;-83
2022/02/16 08:33:02;;;;;;;46.10;27.87;;;;;;;8.48;70.57;95073.31;5053623;28;20446;-83
2022/02/16 08:35:29;;;;;;;51.23;32.40;;;;;;;8.58;70.18;95063.00;5036018;28;20447;-83
2022/02/16 08:37:57;;;;;;;50.20;31.40;;;;;;;8.70;70.56;95067.34;5048761;28;20450;-82
2022/02/16 08:40:24;;;;;;;52.50;28.43;;;;;;;8.90;70.20;95069.25;5043857;28;20443;-82
2022/02/16 08:42:51;;;;;;;48.10;29.73;;;;;;;8.99;68.39;95059.91;5034825;28;20466;-84
2022/02/16 08:45:18;;;;;;;46.03;28.53;;;;;;;9.15;67.80;95056.94;5034787;28;20442;-85
2022/02/16 08:47:47;;;;;;;43.07;27.20;;;;;;;9.24;66.79;95061.47;5037703;28;20446;-85
2022/02/16 08:50:14;;;;;;;41.60;28.17;;;;;;;9.28;68.28;95058.50;5038580;28;20790;-83
2022/02/16 08:52:41;;;;;;;46.03;29.67;;;;;;;9.51;67.70;95054.09;5038063;28;20478;-84
2022/02/16 08:55:09;;;;;;;50.00;30.93;;;;;;;9.60;67.19;95049.94;5036522;28;20455;-86
2022/02/16 08:57:39;;;;;;;48.53;30.40;;;;;;;9.68;67.76;95049.31;5051256;28;20470;-86
2022/02/16 09:00:09;;;;;;;45.07;28.30;;;;;;;9.77;66.29;95049.44;5036545;28;20975;-84
2022/02/16 09:02:37;;;;;;;59.67;26.43;;;;;;;9.57;66.46;95035.28;5039068;28;20446;-85
2022/02/16 09:05:06;;;;;;;41.47;24.77;;;;;;;9.71;66.37;95044.69;5042597;28;20442;-86
2022/02/16 09:07:33;;;;;;;48.33;27.57;;;;;;;9.85;66.72;95039.19;5034342;28;20541;-84
2022/02/16 09:10:02;;;;;;;41.70;27.50;;;;;;;10.03;66.36;95025.56;5033941;28;20445;-85
2022/02/16 09:12:29;;;;;;;42.90;27.60;;;;;;;10.23;65.88;95035.31;5034471;28;20835;-84
2022/02/16 09:14:57;;;;;;;41.37;29.00;;;;;;;10.33;65.57;95030.97;5034285;28;20442;-85
2022/02/16 09:17:25;;;;;;;40.93;24.60;;;;;;;10.38;63.93;95034.03;5033924;28;20854;-85
2022/02/16 09:19:53;;;;;;;37.20;22.50;;;;;;;10.57;64.17;95032.53;5039777;28;20549;-84
2022/02/16 09:22:23;;;;;;;37.07;26.17;;;;;;;10.59;63.79;95025.38;5040525;28;20438;-85
2022/02/16 09:24:50;;;;;;;42.50;27.10;;;;;;;10.66;64.87;95026.53;5041207;28;20461;-85
2022/02/16 09:27:19;;;;;;;42.53;28.00;;;;;;;10.57;65.03;95014.19;5040182;28;20913;-83
2022/02/16 09:29:48;;;;;;;39.43;25.10;;;;;;;10.58;64.04;95026.34;5040346;28;20450;-85
2022/02/16 09:32:14;;;;;;;39.97;28.30;;;;;;;10.55;64.50;95020.38;5040136;28;20486;-83
2022/02/16 09:34:43;;;;;;;41.87;28.47;;;;;;;10.52;65.62;95019.81;5047847;28;20430;-85
2022/02/16 09:37:10;;;;;;;47.07;29.43;;;;;;;10.38;66.86;95013.06;5059802;28;20452;-84
2022/02/16 09:39:38;;;;;;;45.53;30.60;;;;;;;10.44;66.43;95030.94;5060148;28;20445;-84
2022/02/16 09:42:06;;;;;;;52.80;31.03;;;;;;;10.41;66.77;95018.06;5056663;28;20558;-83
2022/02/16 09:44:42;;;;;;;39.97;28.80;;;;;;;10.27;66.87;95014.91;5039098;28;20462;-85
2022/02/16 09:47:09;;;;;;;43.53;28.00;;;;;;;10.39;67.38;95022.59;5038511;28;20470;-85
2022/02/16 09:49:38;;;;;;;39.37;27.77;;;;;;;10.52;66.76;95018.00;5038774;28;20446;-84
2022/02/16 09:52:07;;;;;;;42.63;26.40;;;;;;;10.61;66.20;95016.41;5038754;28;20482;-85
2022/02/16 09:54:34;;;;;;;40.60;27.30;;;;;;;10.72;66.05;95007.66;5039087;28;20513;-84
2022/02/16 09:57:03;;;;;;;40.70;28.10;;;;;;;10.77;64.57;95014.19;5040115;28;20457;-85
2022/02/16 09:59:30;;;;;;;35.90;26.40;;;;;;;10.80;64.47;95007.84;5040142;28;20466;-85
2022/02/16 10:02:00;;;;;;;38.50;27.83;;;;;;;10.74;64.05;95009.19;5039994;28;20519;-84
2022/02/16 10:04:28;;;;;;;44.03;29.40;;;;;;;10.77;64.42;95008.09;5040393;28;20438;-84
2022/02/16 10:06:55;;;;;;;45.93;28.70;;;;;;;10.86;65.30;95002.09;5051435;28;20453;-83
2022/02/16 10:09:30;;;;;;;42.47;29.73;;;;;;;10.91;65.39;94999.88;5047600;28;20521;-84
2022/02/16 10:11:59;;;;;;;48.70;29.40;;;;;;;10.94;64.97;94989.13;5021079;28;20583;-84
2022/02/16 10:21:29;;;;;;;42.83;28.93;;;;;;;10.87;63.79;94982.75;5047014;28;20439;-88
2022/02/16 10:23:57;;;;;;;46.53;27.87;;;;;;;10.94;64.46;94983.03;5059175;28;20951;-84
2022/02/16 10:26:50;;;;;;;42.97;29.57;;;;;;;11.09;64.47;94972.09;5060076;28;20529;-87
2022/02/16 10:29:21;;;;;;;49.53;31.03;;;;;;;11.13;65.08;94962.97;5059301;28;20857;-83
2022/02/16 10:31:48;;;;;;;46.00;29.33;;;;;;;11.20;64.59;94963.28;5055704;28;20475;-82
2022/02/16 10:34:15;;;;;;;52.87;30.30;;;;;;;11.35;63.87;94956.72;5056332;28;20430;-84
2022/02/16 10:36:46;;;;;;;44.53;29.70;;;;;;;11.45;63.57;94948.84;5056230;28;20452;-84
2022/02/16 10:46:22;;;;;;;52.60;28.37;;;;;;;11.61;60.62;94928.16;5024460;28;20549;-84
2022/02/16 10:49:08;;;;;;;31.40;21.03;;;;;;;11.67;59.66;94927.59;5037857;28;20449;-84
2022/02/16 10:51:35;;;;;;;35.17;24.90;;;;;;;11.47;59.30;94924.09;5043197;28;20532;-89
2022/02/16 10:54:13;;;;;;;37.10;25.30;;;;;;;11.50;60.80;94917.75;5035002;28;20452;-85
2022/02/16 10:56:40;;;;;;;34.67;23.30;;;;;;;11.56;60.15;94900.59;5036643;28;20445;-85
2022/02/16 10:59:07;;;;;;;38.87;24.07;;;;;;;11.69;60.29;94904.66;5036330;28;20873;-88
2022/02/16 11:01:35;;;;;;;36.50;24.03;;;;;;;11.73;60.42;94887.63;5035932;28;20453;-85
2022/02/16 11:04:05;;;;;;;31.60;24.33;;;;;;;11.65;61.21;94891.91;5036473;28;20443;-85
2022/02/16 11:06:33;;;;;;;30.93;20.20;;;;;;;11.70;61.07;94887.06;5036171;28;20508;-85
2022/02/16 11:09:02;;;;;;;39.00;21.80;;;;;;;11.62;61.64;94882.50;5035919;28;20926;-84
2022/02/16 11:11:31;;;;;;;25.53;19.23;;;;;;;11.67;61.17;94882.09;5037522;28;20489;-84
2022/02/16 11:14:00;;;;;;;30.60;20.47;;;;;;;11.78;60.96;94879.34;5055629;28;20517;-84
2022/02/16 11:23:13;;;;;;;30.97;20.50;;;;;;;12.17;60.23;94847.81;5054592;28;20452;-85
2022/02/16 11:25:43;;;;;;;33.27;21.30;;;;;;;12.24;61.09;94843.63;5055588;28;20537;-85
2022/02/16 11:28:13;;;;;;;32.57;22.80;;;;;;;12.35;61.73;94846.91;5055394;28;20441;-84
2022/02/16 11:30:44;;;;;;;33.40;22.60;;;;;;;12.47;61.62;94844.16;5055486;28;20453;-85
2022/02/16 11:33:17;;;;;;;37.40;24.23;;;;;;;12.38;62.35;94841.38;5055225;28;20477;-85
2022/02/16 11:35:47;;;;;;;32.40;23.77;;;;;;;12.44;61.86;94828.63;5055660;28;20489;-84
2022/02/16 11:38:15;;;;;;;38.90;25.90;;;;;;;12.46;62.60;94831.97;5055513;28;20498;-86
2022/02/16 11:40:43;;;;;;;42.47;25.30;;;;;;;12.35;62.13;94831.13;5055615;28;20437;-82
2022/02/16 11:43:14;;;;;;;38.80;24.90;;;;;;;12.35;62.89;94830.31;5054395;28;20418;-84
2022/02/16 11:45:48;;;;;;;36.70;24.77;;;;;;;12.26;62.42;94816.22;5055004;28;20469;-86
2022/02/16 11:48:44;;;;;;;40.83;24.27;;;;;;;12.32;62.16;94828.78;5055323;28;20460;-84
2022/02/16 11:51:37;;;;;;;42.47;23.00;;;;;;;12.31;62.05;94828.94;5054837;28;20546;-84
2022/02/16 11:54:55;;;;;;;34.57;23.20;;;;;;;12.41;61.72;94811.31;5055248;28;20766;-83
2022/02/16 11:57:56;;;;;;;29.87;20.23;;;;;;;12.34;61.01;94808.44;5053761;28;20804;-86
2022/02/16 12:00:33;;;;;;;27.57;17.67;;;;;;;12.42;60.16;94799.81;5045025;28;20455;-87